sensor_id;sensor_type;location;lat;lon;timestamp;P1;durP1;ratioP1;P2;durP2;ratioP2
75035;SDS011;64247;51.540;5.854;2023-04-01T00:00:58;4.38;;;2.22;;
75035;SDS011;64247;51.540;5.854;2023-04-01T00:03:01;6.10;;;3.40;;
75035;SDS011;64247;51.540;5.854;2023-04-01T00:05:02;5.07;;;1.90;;
75035;SDS011;64247;51.540;5.854;2023-04-01T00:07:06;5.40;;;2.97;;
75035;SDS011;64247;51.540;5.854;2023-04-01T00:09:07;4.38;;;2.72;;
75035;SDS011;64247;51.540;5.854;2023-04-01T00:11:08;3.83;;;2.03;;
75035;SDS011;64247;51.540;5.854;2023-04-01T00:13:09;1.42;;;1.33;;
75035;SDS011;64247;51.540;5.854;2023-04-01T00:15:11;5.10;;;2.08;;
75035;SDS011;64247;51.540;5.854;2023-04-01T00:17:12;7.30;;;2.80;;
75035;SDS011;64247;51.540;5.854;2023-04-01T00:19:13;6.03;;;2.78;;
75035;SDS011;64247;51.540;5.854;2023-04-01T00:21:15;5.95;;;2.30;;
75035;SDS011;64247;51.540;5.854;2023-04-01T00:23:17;5.30;;;2.13;;
75035;SDS011;64247;51.540;5.854;2023-04-01T00:25:19;4.88;;;1.63;;
75035;SDS011;64247;51.540;5.854;2023-04-01T00:27:20;3.28;;;1.05;;
75035;SDS011;64247;51.540;5.854;2023-04-01T00:29:21;3.38;;;1.70;;
75035;SDS011;64247;51.540;5.854;2023-04-01T00:31:24;3.38;;;2.10;;
75035;SDS011;64247;51.540;5.854;2023-04-01T00:33:25;3.08;;;2.13;;
75035;SDS011;64247;51.540;5.854;2023-04-01T00:35:28;8.20;;;2.58;;
75035;SDS011;64247;51.540;5.854;2023-04-01T00:37:28;4.70;;;1.80;;
75035;SDS011;64247;51.540;5.854;2023-04-01T00:39:30;6.13;;;2.42;;
75035;SDS011;64247;51.540;5.854;2023-04-01T00:41:33;4.00;;;2.40;;
75035;SDS011;64247;51.540;5.854;2023-04-01T00:43:34;2.25;;;1.98;;
75035;SDS011;64247;51.540;5.854;2023-04-01T00:45:37;4.70;;;2.55;;
75035;SDS011;64247;51.540;5.854;2023-04-01T00:47:41;4.15;;;1.15;;
75035;SDS011;64247;51.540;5.854;2023-04-01T00:49:44;3.50;;;1.90;;
75035;SDS011;64247;51.540;5.854;2023-04-01T00:51:51;2.88;;;2.17;;
75035;SDS011;64247;51.540;5.854;2023-04-01T00:53:57;4.18;;;1.20;;
75035;SDS011;64247;51.540;5.854;2023-04-01T00:58:28;2.45;;;1.77;;
75035;SDS011;64247;51.540;5.854;2023-04-01T01:00:33;3.25;;;1.58;;
75035;SDS011;64247;51.540;5.854;2023-04-01T01:02:36;4.40;;;2.33;;
75035;SDS011;64247;51.540;5.854;2023-04-01T01:04:39;1.70;;;1.40;;
75035;SDS011;64247;51.540;5.854;2023-04-01T01:06:44;2.35;;;1.23;;
75035;SDS011;64247;51.540;5.854;2023-04-01T01:09:23;2.83;;;1.20;;
75035;SDS011;64247;51.540;5.854;2023-04-01T01:11:37;2.30;;;1.48;;
75035;SDS011;64247;51.540;5.854;2023-04-01T01:16:52;1.42;;;1.33;;
75035;SDS011;64247;51.540;5.854;2023-04-01T01:19:23;1.95;;;1.10;;
75035;SDS011;64247;51.540;5.854;2023-04-01T01:27:49;2.15;;;1.35;;
75035;SDS011;64247;51.540;5.854;2023-04-01T01:33:24;1.08;;;1.00;;
75035;SDS011;64247;51.540;5.854;2023-04-01T01:36:04;2.88;;;0.60;;
75035;SDS011;64247;51.540;5.854;2023-04-01T01:38:15;1.55;;;1.00;;
75035;SDS011;64247;51.540;5.854;2023-04-01T01:40:31;1.08;;;1.00;;
75035;SDS011;64247;51.540;5.854;2023-04-01T01:42:35;3.80;;;1.00;;
75035;SDS011;64247;51.540;5.854;2023-04-01T01:44:42;0.70;;;0.68;;
75035;SDS011;64247;51.540;5.854;2023-04-01T01:46:46;2.05;;;1.38;;
75035;SDS011;64247;51.540;5.854;2023-04-01T01:48:50;3.05;;;1.48;;
75035;SDS011;64247;51.540;5.854;2023-04-01T01:50:53;2.28;;;1.02;;
75035;SDS011;64247;51.540;5.854;2023-04-01T01:53:28;3.05;;;1.00;;
75035;SDS011;64247;51.540;5.854;2023-04-01T01:55:29;2.00;;;1.35;;
75035;SDS011;64247;51.540;5.854;2023-04-01T01:57:34;2.58;;;1.45;;
75035;SDS011;64247;51.540;5.854;2023-04-01T01:59:44;1.13;;;0.95;;
75035;SDS011;64247;51.540;5.854;2023-04-01T02:01:56;1.10;;;0.88;;
75035;SDS011;64247;51.540;5.854;2023-04-01T02:03:59;2.22;;;1.00;;
75035;SDS011;64247;51.540;5.854;2023-04-01T02:06:02;1.58;;;0.82;;
75035;SDS011;64247;51.540;5.854;2023-04-01T02:08:12;2.42;;;1.02;;
75035;SDS011;64247;51.540;5.854;2023-04-01T02:10:20;0.77;;;0.75;;
75035;SDS011;64247;51.540;5.854;2023-04-01T02:12:26;1.35;;;1.25;;
75035;SDS011;64247;51.540;5.854;2023-04-01T02:14:40;1.05;;;0.88;;
75035;SDS011;64247;51.540;5.854;2023-04-01T02:16:58;3.13;;;1.60;;
75035;SDS011;64247;51.540;5.854;2023-04-01T02:19:07;1.88;;;1.42;;
75035;SDS011;64247;51.540;5.854;2023-04-01T02:21:12;2.20;;;0.95;;
75035;SDS011;64247;51.540;5.854;2023-04-01T02:23:15;1.80;;;1.70;;
75035;SDS011;64247;51.540;5.854;2023-04-01T02:25:30;2.40;;;1.27;;
75035;SDS011;64247;51.540;5.854;2023-04-01T02:27:36;2.75;;;2.05;;
75035;SDS011;64247;51.540;5.854;2023-04-01T02:29:39;2.05;;;1.80;;
75035;SDS011;64247;51.540;5.854;2023-04-01T02:31:43;1.67;;;1.58;;
75035;SDS011;64247;51.540;5.854;2023-04-01T02:33:44;1.70;;;1.50;;
75035;SDS011;64247;51.540;5.854;2023-04-01T02:35:47;2.22;;;2.03;;
75035;SDS011;64247;51.540;5.854;2023-04-01T02:37:49;2.15;;;1.50;;
75035;SDS011;64247;51.540;5.854;2023-04-01T02:39:53;2.15;;;1.60;;
75035;SDS011;64247;51.540;5.854;2023-04-01T02:41:53;1.67;;;1.40;;
75035;SDS011;64247;51.540;5.854;2023-04-01T02:43:54;2.25;;;1.75;;
75035;SDS011;64247;51.540;5.854;2023-04-01T02:45:57;1.83;;;1.70;;
75035;SDS011;64247;51.540;5.854;2023-04-01T02:47:58;2.60;;;1.70;;
75035;SDS011;64247;51.540;5.854;2023-04-01T02:49:59;1.95;;;1.55;;
75035;SDS011;64247;51.540;5.854;2023-04-01T02:52:00;2.05;;;1.90;;
75035;SDS011;64247;51.540;5.854;2023-04-01T02:54:01;2.67;;;2.15;;
75035;SDS011;64247;51.540;5.854;2023-04-01T02:56:02;2.30;;;1.88;;
75035;SDS011;64247;51.540;5.854;2023-04-01T02:58:04;3.53;;;2.17;;
75035;SDS011;64247;51.540;5.854;2023-04-01T03:00:05;2.50;;;2.00;;
75035;SDS011;64247;51.540;5.854;2023-04-01T03:02:11;5.65;;;2.88;;
75035;SDS011;64247;51.540;5.854;2023-04-01T03:04:12;5.18;;;3.00;;
75035;SDS011;64247;51.540;5.854;2023-04-01T03:06:14;6.43;;;3.58;;
75035;SDS011;64247;51.540;5.854;2023-04-01T03:08:17;6.97;;;3.22;;
75035;SDS011;64247;51.540;5.854;2023-04-01T03:10:18;6.85;;;3.00;;
75035;SDS011;64247;51.540;5.854;2023-04-01T03:12:19;5.18;;;3.13;;
75035;SDS011;64247;51.540;5.854;2023-04-01T03:14:24;6.32;;;4.10;;
75035;SDS011;64247;51.540;5.854;2023-04-01T03:16:25;7.00;;;4.78;;
75035;SDS011;64247;51.540;5.854;2023-04-01T03:18:26;10.50;;;4.22;;
75035;SDS011;64247;51.540;5.854;2023-04-01T03:20:27;9.18;;;6.05;;
75035;SDS011;64247;51.540;5.854;2023-04-01T03:22:28;5.60;;;3.33;;
75035;SDS011;64247;51.540;5.854;2023-04-01T03:24:28;5.35;;;3.63;;
75035;SDS011;64247;51.540;5.854;2023-04-01T03:26:29;6.00;;;4.07;;
75035;SDS011;64247;51.540;5.854;2023-04-01T03:28:31;4.85;;;3.90;;
75035;SDS011;64247;51.540;5.854;2023-04-01T03:30:32;8.38;;;5.57;;
75035;SDS011;64247;51.540;5.854;2023-04-01T03:32:34;7.35;;;5.03;;
75035;SDS011;64247;51.540;5.854;2023-04-01T03:34:35;6.80;;;3.53;;
75035;SDS011;64247;51.540;5.854;2023-04-01T03:36:36;4.93;;;4.25;;
75035;SDS011;64247;51.540;5.854;2023-04-01T03:38:37;8.65;;;4.47;;
75035;SDS011;64247;51.540;5.854;2023-04-01T03:40:41;8.20;;;5.85;;
75035;SDS011;64247;51.540;5.854;2023-04-01T03:42:43;6.47;;;4.88;;
75035;SDS011;64247;51.540;5.854;2023-04-01T03:44:44;8.18;;;5.53;;
75035;SDS011;64247;51.540;5.854;2023-04-01T03:46:46;6.50;;;5.75;;
75035;SDS011;64247;51.540;5.854;2023-04-01T03:48:47;6.85;;;4.35;;
75035;SDS011;64247;51.540;5.854;2023-04-01T03:50:47;7.80;;;3.83;;
75035;SDS011;64247;51.540;5.854;2023-04-01T03:52:49;10.00;;;5.03;;
75035;SDS011;64247;51.540;5.854;2023-04-01T03:54:49;5.32;;;4.57;;
75035;SDS011;64247;51.540;5.854;2023-04-01T03:56:50;7.45;;;5.80;;
75035;SDS011;64247;51.540;5.854;2023-04-01T03:58:51;4.15;;;3.63;;
75035;SDS011;64247;51.540;5.854;2023-04-01T04:00:52;4.72;;;2.95;;
75035;SDS011;64247;51.540;5.854;2023-04-01T04:02:54;4.30;;;3.42;;
75035;SDS011;64247;51.540;5.854;2023-04-01T04:05:02;6.07;;;3.78;;
75035;SDS011;64247;51.540;5.854;2023-04-01T04:07:03;6.72;;;3.88;;
75035;SDS011;64247;51.540;5.854;2023-04-01T04:09:14;4.53;;;2.88;;
75035;SDS011;64247;51.540;5.854;2023-04-01T04:11:15;4.82;;;3.72;;
75035;SDS011;64247;51.540;5.854;2023-04-01T04:13:18;4.78;;;3.65;;
75035;SDS011;64247;51.540;5.854;2023-04-01T04:15:24;4.32;;;3.33;;
75035;SDS011;64247;51.540;5.854;2023-04-01T04:17:25;4.88;;;3.97;;
75035;SDS011;64247;51.540;5.854;2023-04-01T04:19:30;4.68;;;3.75;;
75035;SDS011;64247;51.540;5.854;2023-04-01T04:21:35;7.38;;;5.15;;
75035;SDS011;64247;51.540;5.854;2023-04-01T04:23:35;6.50;;;4.95;;
75035;SDS011;64247;51.540;5.854;2023-04-01T04:25:37;4.45;;;3.83;;
75035;SDS011;64247;51.540;5.854;2023-04-01T04:27:38;5.97;;;4.95;;
75035;SDS011;64247;51.540;5.854;2023-04-01T04:29:41;5.63;;;3.65;;
75035;SDS011;64247;51.540;5.854;2023-04-01T04:31:43;6.47;;;5.13;;
75035;SDS011;64247;51.540;5.854;2023-04-01T04:33:43;3.33;;;2.20;;
75035;SDS011;64247;51.540;5.854;2023-04-01T04:35:44;6.13;;;3.97;;
75035;SDS011;64247;51.540;5.854;2023-04-01T04:37:45;8.30;;;4.57;;
75035;SDS011;64247;51.540;5.854;2023-04-01T04:39:47;4.55;;;3.80;;
75035;SDS011;64247;51.540;5.854;2023-04-01T04:41:48;5.22;;;4.65;;
75035;SDS011;64247;51.540;5.854;2023-04-01T04:43:53;4.90;;;4.32;;
75035;SDS011;64247;51.540;5.854;2023-04-01T04:45:57;4.57;;;3.42;;
75035;SDS011;64247;51.540;5.854;2023-04-01T04:47:58;5.85;;;3.50;;
75035;SDS011;64247;51.540;5.854;2023-04-01T04:49:59;4.03;;;3.25;;
75035;SDS011;64247;51.540;5.854;2023-04-01T04:52:00;4.47;;;2.78;;
75035;SDS011;64247;51.540;5.854;2023-04-01T04:54:02;5.43;;;4.43;;
75035;SDS011;64247;51.540;5.854;2023-04-01T04:56:21;4.78;;;2.33;;
75035;SDS011;64247;51.540;5.854;2023-04-01T04:58:37;4.22;;;3.70;;
75035;SDS011;64247;51.540;5.854;2023-04-01T05:00:41;4.18;;;2.50;;
75035;SDS011;64247;51.540;5.854;2023-04-01T05:02:51;3.58;;;2.50;;
75035;SDS011;64247;51.540;5.854;2023-04-01T05:04:52;4.13;;;3.55;;
75035;SDS011;64247;51.540;5.854;2023-04-01T05:06:53;3.22;;;2.35;;
75035;SDS011;64247;51.540;5.854;2023-04-01T05:08:54;3.50;;;2.75;;
75035;SDS011;64247;51.540;5.854;2023-04-01T05:10:55;5.60;;;3.35;;
75035;SDS011;64247;51.540;5.854;2023-04-01T05:12:56;3.50;;;3.20;;
75035;SDS011;64247;51.540;5.854;2023-04-01T05:14:58;4.53;;;3.60;;
75035;SDS011;64247;51.540;5.854;2023-04-01T05:17:00;4.50;;;3.65;;
75035;SDS011;64247;51.540;5.854;2023-04-01T05:19:01;4.18;;;3.13;;
75035;SDS011;64247;51.540;5.854;2023-04-01T05:21:02;4.28;;;2.80;;
75035;SDS011;64247;51.540;5.854;2023-04-01T05:23:03;2.95;;;2.05;;
75035;SDS011;64247;51.540;5.854;2023-04-01T05:25:04;3.67;;;2.30;;
75035;SDS011;64247;51.540;5.854;2023-04-01T05:27:06;4.15;;;3.03;;
75035;SDS011;64247;51.540;5.854;2023-04-01T05:29:09;5.70;;;3.75;;
75035;SDS011;64247;51.540;5.854;2023-04-01T05:31:10;4.03;;;3.47;;
75035;SDS011;64247;51.540;5.854;2023-04-01T05:33:13;3.38;;;2.80;;
75035;SDS011;64247;51.540;5.854;2023-04-01T05:35:15;4.78;;;3.17;;
75035;SDS011;64247;51.540;5.854;2023-04-01T05:37:16;4.68;;;3.97;;
75035;SDS011;64247;51.540;5.854;2023-04-01T05:39:17;5.15;;;3.65;;
75035;SDS011;64247;51.540;5.854;2023-04-01T05:41:18;4.88;;;3.35;;
75035;SDS011;64247;51.540;5.854;2023-04-01T05:43:20;3.45;;;3.05;;
75035;SDS011;64247;51.540;5.854;2023-04-01T05:45:23;3.60;;;3.30;;
75035;SDS011;64247;51.540;5.854;2023-04-01T05:47:42;4.22;;;3.70;;
75035;SDS011;64247;51.540;5.854;2023-04-01T05:49:43;6.05;;;3.85;;
75035;SDS011;64247;51.540;5.854;2023-04-01T05:51:44;6.22;;;4.55;;
75035;SDS011;64247;51.540;5.854;2023-04-01T05:53:46;5.82;;;4.75;;
75035;SDS011;64247;51.540;5.854;2023-04-01T05:55:47;4.63;;;4.13;;
75035;SDS011;64247;51.540;5.854;2023-04-01T05:57:48;5.68;;;4.45;;
75035;SDS011;64247;51.540;5.854;2023-04-01T05:59:50;5.63;;;3.65;;
75035;SDS011;64247;51.540;5.854;2023-04-01T06:01:50;6.05;;;5.45;;
75035;SDS011;64247;51.540;5.854;2023-04-01T06:03:53;5.72;;;5.07;;
75035;SDS011;64247;51.540;5.854;2023-04-01T06:05:54;5.72;;;3.28;;
75035;SDS011;64247;51.540;5.854;2023-04-01T06:07:59;3.97;;;3.03;;
75035;SDS011;64247;51.540;5.854;2023-04-01T06:10:16;3.22;;;2.83;;
75035;SDS011;64247;51.540;5.854;2023-04-01T06:18:03;4.72;;;3.20;;
75035;SDS011;64247;51.540;5.854;2023-04-01T06:24:04;4.75;;;3.63;;
75035;SDS011;64247;51.540;5.854;2023-04-01T06:26:49;9.05;;;5.85;;
75035;SDS011;64247;51.540;5.854;2023-04-01T06:32:29;7.57;;;4.72;;
75035;SDS011;64247;51.540;5.854;2023-04-01T06:50:51;11.32;;;6.78;;
75035;SDS011;64247;51.540;5.854;2023-04-01T06:54:11;16.05;;;8.80;;
75035;SDS011;64247;51.540;5.854;2023-04-01T06:56:40;9.10;;;5.45;;
75035;SDS011;64247;51.540;5.854;2023-04-01T06:58:57;9.23;;;6.00;;
75035;SDS011;64247;51.540;5.854;2023-04-01T07:01:58;9.60;;;6.65;;
75035;SDS011;64247;51.540;5.854;2023-04-01T07:03:55;9.70;;;6.68;;
75035;SDS011;64247;51.540;5.854;2023-04-01T07:06:04;9.65;;;6.50;;
75035;SDS011;64247;51.540;5.854;2023-04-01T07:08:20;7.93;;;5.38;;
75035;SDS011;64247;51.540;5.854;2023-04-01T07:11:11;7.30;;;4.45;;
75035;SDS011;64247;51.540;5.854;2023-04-01T07:13:50;8.00;;;5.90;;
75035;SDS011;64247;51.540;5.854;2023-04-01T07:18:41;7.95;;;6.00;;
75035;SDS011;64247;51.540;5.854;2023-04-01T07:22:27;7.82;;;5.28;;
75035;SDS011;64247;51.540;5.854;2023-04-01T07:25:02;9.70;;;6.60;;
75035;SDS011;64247;51.540;5.854;2023-04-01T07:28:13;8.30;;;6.25;;
75035;SDS011;64247;51.540;5.854;2023-04-01T07:30:22;11.25;;;6.45;;
75035;SDS011;64247;51.540;5.854;2023-04-01T07:38:08;13.95;;;7.07;;
75035;SDS011;64247;51.540;5.854;2023-04-01T07:50:29;13.35;;;8.85;;
75035;SDS011;64247;51.540;5.854;2023-04-01T07:58:19;15.93;;;11.50;;
75035;SDS011;64247;51.540;5.854;2023-04-01T08:01:13;14.57;;;9.63;;
75035;SDS011;64247;51.540;5.854;2023-04-01T08:06:57;18.02;;;12.60;;
75035;SDS011;64247;51.540;5.854;2023-04-01T08:10:23;13.20;;;7.38;;
75035;SDS011;64247;51.540;5.854;2023-04-01T08:20:57;16.27;;;9.35;;
75035;SDS011;64247;51.540;5.854;2023-04-01T08:23:11;11.63;;;6.75;;
75035;SDS011;64247;51.540;5.854;2023-04-01T08:25:25;12.98;;;6.93;;
75035;SDS011;64247;51.540;5.854;2023-04-01T08:30:19;13.75;;;8.98;;
75035;SDS011;64247;51.540;5.854;2023-04-01T08:32:26;12.55;;;7.53;;
75035;SDS011;64247;51.540;5.854;2023-04-01T08:34:37;9.85;;;6.65;;
75035;SDS011;64247;51.540;5.854;2023-04-01T08:37:31;13.07;;;8.02;;
75035;SDS011;64247;51.540;5.854;2023-04-01T08:39:34;10.88;;;7.18;;
75035;SDS011;64247;51.540;5.854;2023-04-01T09:08:31;13.80;;;8.82;;
75035;SDS011;64247;51.540;5.854;2023-04-01T09:27:10;18.52;;;12.02;;
75035;SDS011;64247;51.540;5.854;2023-04-01T09:31:44;24.05;;;13.10;;
75035;SDS011;64247;51.540;5.854;2023-04-01T09:40:44;20.35;;;12.20;;
75035;SDS011;64247;51.540;5.854;2023-04-01T09:42:50;16.05;;;10.20;;
75035;SDS011;64247;51.540;5.854;2023-04-01T09:45:37;17.50;;;10.15;;
75035;SDS011;64247;51.540;5.854;2023-04-01T09:54:13;15.15;;;10.10;;
75035;SDS011;64247;51.540;5.854;2023-04-01T10:01:16;15.48;;;8.90;;
75035;SDS011;64247;51.540;5.854;2023-04-01T10:22:59;15.38;;;9.52;;
75035;SDS011;64247;51.540;5.854;2023-04-01T10:36:47;11.57;;;8.10;;
75035;SDS011;64247;51.540;5.854;2023-04-01T10:47:12;13.10;;;8.35;;
75035;SDS011;64247;51.540;5.854;2023-04-01T11:04:22;10.50;;;9.40;;
75035;SDS011;64247;51.540;5.854;2023-04-01T11:23:13;9.55;;;7.55;;
75035;SDS011;64247;51.540;5.854;2023-04-01T11:30:16;13.60;;;10.52;;
75035;SDS011;64247;51.540;5.854;2023-04-01T11:32:54;13.95;;;11.32;;
75035;SDS011;64247;51.540;5.854;2023-04-01T11:41:52;13.32;;;10.40;;
75035;SDS011;64247;51.540;5.854;2023-04-01T11:53:41;17.67;;;11.80;;
75035;SDS011;64247;51.540;5.854;2023-04-01T12:00:28;17.38;;;13.48;;
75035;SDS011;64247;51.540;5.854;2023-04-01T12:09:33;20.05;;;13.35;;
75035;SDS011;64247;51.540;5.854;2023-04-01T12:20:41;23.40;;;15.77;;
75035;SDS011;64247;51.540;5.854;2023-04-01T12:23:12;20.88;;;16.85;;
75035;SDS011;64247;51.540;5.854;2023-04-01T12:35:44;18.95;;;13.68;;
75035;SDS011;64247;51.540;5.854;2023-04-01T12:48:19;16.65;;;13.13;;
75035;SDS011;64247;51.540;5.854;2023-04-01T12:51:50;15.50;;;11.00;;
75035;SDS011;64247;51.540;5.854;2023-04-01T12:57:07;13.07;;;9.48;;
75035;SDS011;64247;51.540;5.854;2023-04-01T13:00:56;13.88;;;10.25;;
75035;SDS011;64247;51.540;5.854;2023-04-01T13:10:20;11.27;;;9.48;;
75035;SDS011;64247;51.540;5.854;2023-04-01T13:21:41;11.20;;;8.63;;
75035;SDS011;64247;51.540;5.854;2023-04-01T13:24:41;7.20;;;6.25;;
75035;SDS011;64247;51.540;5.854;2023-04-01T13:33:38;4.45;;;3.78;;
75035;SDS011;64247;51.540;5.854;2023-04-01T13:52:29;12.52;;;9.35;;
75035;SDS011;64247;51.540;5.854;2023-04-01T14:04:33;5.80;;;4.78;;
75035;SDS011;64247;51.540;5.854;2023-04-01T14:14:58;8.90;;;5.35;;
75035;SDS011;64247;51.540;5.854;2023-04-01T14:18:22;4.35;;;3.95;;
75035;SDS011;64247;51.540;5.854;2023-04-01T14:42:41;7.30;;;6.10;;
75035;SDS011;64247;51.540;5.854;2023-04-01T14:48:33;8.93;;;6.40;;
75035;SDS011;64247;51.540;5.854;2023-04-01T14:50:55;8.90;;;6.63;;
75035;SDS011;64247;51.540;5.854;2023-04-01T14:53:12;8.10;;;5.13;;
75035;SDS011;64247;51.540;5.854;2023-04-01T14:55:30;7.57;;;5.38;;
75035;SDS011;64247;51.540;5.854;2023-04-01T15:03:51;11.48;;;7.82;;
75035;SDS011;64247;51.540;5.854;2023-04-01T15:13:50;10.95;;;7.32;;
75035;SDS011;64247;51.540;5.854;2023-04-01T15:16:45;6.47;;;5.07;;
75035;SDS011;64247;51.540;5.854;2023-04-01T15:19:31;7.10;;;4.72;;
75035;SDS011;64247;51.540;5.854;2023-04-01T15:30:47;10.48;;;7.70;;
75035;SDS011;64247;51.540;5.854;2023-04-01T15:36:41;9.23;;;5.85;;
75035;SDS011;64247;51.540;5.854;2023-04-01T15:40:07;12.07;;;9.48;;
75035;SDS011;64247;51.540;5.854;2023-04-01T16:01:04;10.05;;;7.47;;
75035;SDS011;64247;51.540;5.854;2023-04-01T16:04:06;8.52;;;4.90;;
75035;SDS011;64247;51.540;5.854;2023-04-01T16:10:59;12.25;;;8.88;;
75035;SDS011;64247;51.540;5.854;2023-04-01T16:22:56;6.82;;;5.90;;
75035;SDS011;64247;51.540;5.854;2023-04-01T16:36:08;10.23;;;7.28;;
75035;SDS011;64247;51.540;5.854;2023-04-01T16:45:21;7.43;;;3.45;;
75035;SDS011;64247;51.540;5.854;2023-04-01T16:47:37;8.07;;;5.60;;
75035;SDS011;64247;51.540;5.854;2023-04-01T16:55:19;8.18;;;5.70;;
75035;SDS011;64247;51.540;5.854;2023-04-01T16:57:48;4.78;;;3.00;;
75035;SDS011;64247;51.540;5.854;2023-04-01T17:00:02;7.05;;;5.32;;
75035;SDS011;64247;51.540;5.854;2023-04-01T17:03:32;7.85;;;3.78;;
75035;SDS011;64247;51.540;5.854;2023-04-01T17:05:40;10.27;;;5.15;;
75035;SDS011;64247;51.540;5.854;2023-04-01T17:18:08;5.55;;;3.42;;
75035;SDS011;64247;51.540;5.854;2023-04-01T17:23:49;7.63;;;4.93;;
75035;SDS011;64247;51.540;5.854;2023-04-01T17:29:55;6.75;;;4.57;;
75035;SDS011;64247;51.540;5.854;2023-04-01T17:33:14;4.90;;;3.08;;
75035;SDS011;64247;51.540;5.854;2023-04-01T17:41:28;8.10;;;5.30;;
75035;SDS011;64247;51.540;5.854;2023-04-01T17:53:27;7.45;;;4.60;;
75035;SDS011;64247;51.540;5.854;2023-04-01T18:00:13;6.75;;;3.72;;
75035;SDS011;64247;51.540;5.854;2023-04-01T18:11:09;5.28;;;3.20;;
75035;SDS011;64247;51.540;5.854;2023-04-01T18:17:25;4.00;;;2.33;;
75035;SDS011;64247;51.540;5.854;2023-04-01T18:23:59;3.38;;;2.97;;
75035;SDS011;64247;51.540;5.854;2023-04-01T18:29:12;3.35;;;2.75;;
75035;SDS011;64247;51.540;5.854;2023-04-01T18:31:42;4.68;;;2.95;;
75035;SDS011;64247;51.540;5.854;2023-04-01T18:39:14;5.18;;;3.40;;
75035;SDS011;64247;51.540;5.854;2023-04-01T18:41:30;4.13;;;3.30;;
75035;SDS011;64247;51.540;5.854;2023-04-01T18:50:13;4.07;;;2.95;;
75035;SDS011;64247;51.540;5.854;2023-04-01T18:52:58;5.13;;;3.33;;
75035;SDS011;64247;51.540;5.854;2023-04-01T18:55:46;5.28;;;3.15;;
75035;SDS011;64247;51.540;5.854;2023-04-01T19:01:11;5.22;;;3.45;;
75035;SDS011;64247;51.540;5.854;2023-04-01T19:04:27;4.30;;;3.10;;
75035;SDS011;64247;51.540;5.854;2023-04-01T19:06:58;5.18;;;3.30;;
75035;SDS011;64247;51.540;5.854;2023-04-01T19:25:15;4.03;;;3.03;;
75035;SDS011;64247;51.540;5.854;2023-04-01T19:30:35;7.35;;;4.50;;
75035;SDS011;64247;51.540;5.854;2023-04-01T19:38:57;7.05;;;4.50;;
75035;SDS011;64247;51.540;5.854;2023-04-01T19:41:49;5.28;;;3.25;;
75035;SDS011;64247;51.540;5.854;2023-04-01T19:44:39;7.95;;;5.03;;
75035;SDS011;64247;51.540;5.854;2023-04-01T19:50:37;7.72;;;5.43;;
75035;SDS011;64247;51.540;5.854;2023-04-01T19:52:51;8.90;;;5.60;;
75035;SDS011;64247;51.540;5.854;2023-04-01T19:55:10;6.03;;;4.65;;
75035;SDS011;64247;51.540;5.854;2023-04-01T19:57:46;7.85;;;5.18;;
75035;SDS011;64247;51.540;5.854;2023-04-01T20:00:35;7.85;;;4.82;;
75035;SDS011;64247;51.540;5.854;2023-04-01T20:20:03;7.70;;;5.30;;
75035;SDS011;64247;51.540;5.854;2023-04-01T20:22:24;6.85;;;4.93;;
75035;SDS011;64247;51.540;5.854;2023-04-01T20:26:14;6.28;;;4.65;;
75035;SDS011;64247;51.540;5.854;2023-04-01T20:28:28;8.73;;;5.65;;
75035;SDS011;64247;51.540;5.854;2023-04-01T20:41:27;4.97;;;3.85;;
75035;SDS011;64247;51.540;5.854;2023-04-01T20:52:26;4.95;;;3.95;;
75035;SDS011;64247;51.540;5.854;2023-04-01T20:54:58;5.22;;;3.72;;
75035;SDS011;64247;51.540;5.854;2023-04-01T21:03:55;5.90;;;4.45;;
75035;SDS011;64247;51.540;5.854;2023-04-01T21:11:39;5.68;;;4.43;;
75035;SDS011;64247;51.540;5.854;2023-04-01T21:13:10;6.28;;;4.75;;
75035;SDS011;64247;51.540;5.854;2023-04-01T21:28:05;4.05;;;3.42;;
75035;SDS011;64247;51.540;5.854;2023-04-01T21:30:49;5.13;;;3.40;;
75035;SDS011;64247;51.540;5.854;2023-04-01T21:33:28;5.78;;;3.92;;
75035;SDS011;64247;51.540;5.854;2023-04-01T21:36:15;5.38;;;4.28;;
75035;SDS011;64247;51.540;5.854;2023-04-01T21:41:58;5.72;;;4.35;;
75035;SDS011;64247;51.540;5.854;2023-04-01T21:46:04;5.88;;;4.78;;
75035;SDS011;64247;51.540;5.854;2023-04-01T21:51:26;5.15;;;4.40;;
75035;SDS011;64247;51.540;5.854;2023-04-01T22:12:47;8.85;;;5.50;;
75035;SDS011;64247;51.540;5.854;2023-04-01T22:15:44;8.10;;;5.40;;
75035;SDS011;64247;51.540;5.854;2023-04-01T22:21:35;8.27;;;4.78;;
75035;SDS011;64247;51.540;5.854;2023-04-01T22:29:08;4.45;;;3.53;;
75035;SDS011;64247;51.540;5.854;2023-04-01T22:31:23;5.22;;;3.65;;
75035;SDS011;64247;51.540;5.854;2023-04-01T22:36:59;3.80;;;2.47;;
75035;SDS011;64247;51.540;5.854;2023-04-01T22:39:33;3.72;;;2.47;;
75035;SDS011;64247;51.540;5.854;2023-04-01T22:51:14;7.13;;;3.78;;
75035;SDS011;64247;51.540;5.854;2023-04-01T22:56:46;4.40;;;3.63;;
75035;SDS011;64247;51.540;5.854;2023-04-01T22:58:55;4.70;;;3.67;;
75035;SDS011;64247;51.540;5.854;2023-04-01T23:01:53;5.18;;;3.63;;
75035;SDS011;64247;51.540;5.854;2023-04-01T23:04:15;4.00;;;3.28;;
75035;SDS011;64247;51.540;5.854;2023-04-01T23:06:24;4.53;;;3.08;;
75035;SDS011;64247;51.540;5.854;2023-04-01T23:11:26;3.60;;;3.08;;
75035;SDS011;64247;51.540;5.854;2023-04-01T23:13:49;3.85;;;3.17;;
75035;SDS011;64247;51.540;5.854;2023-04-01T23:23:41;5.50;;;4.13;;
75035;SDS011;64247;51.540;5.854;2023-04-01T23:26:29;6.35;;;4.47;;
75035;SDS011;64247;51.540;5.854;2023-04-01T23:29:00;6.18;;;4.35;;
75035;SDS011;64247;51.540;5.854;2023-04-01T23:31:03;5.18;;;3.72;;
75035;SDS011;64247;51.540;5.854;2023-04-01T23:35:32;5.13;;;3.90;;
75035;SDS011;64247;51.540;5.854;2023-04-01T23:37:33;4.63;;;4.13;;
75035;SDS011;64247;51.540;5.854;2023-04-01T23:42:03;4.10;;;2.97;;
75035;SDS011;64247;51.540;5.854;2023-04-01T23:44:13;3.25;;;2.95;;
75035;SDS011;64247;51.540;5.854;2023-04-01T23:46:16;4.53;;;3.35;;
75035;SDS011;64247;51.540;5.854;2023-04-01T23:48:17;4.45;;;2.67;;
75035;SDS011;64247;51.540;5.854;2023-04-01T23:50:23;4.35;;;3.45;;
75035;SDS011;64247;51.540;5.854;2023-04-01T23:52:30;3.60;;;2.80;;
75035;SDS011;64247;51.540;5.854;2023-04-01T23:54:55;3.90;;;3.50;;
75035;SDS011;64247;51.540;5.854;2023-04-01T23:57:04;3.63;;;2.70;;
75035;SDS011;64247;51.540;5.854;2023-04-01T23:59:18;3.50;;;2.80;;
